Elimsport, Pennsylvania
Current Conditions -  °F | °C
As of 10:54 PM on Saturday 22 Nov 2014 (Local Time) from KIPT Reporting Station
Overcast Overcast  
Wind Chill: 33°   Ceiling: 9500
Heat Index: 33°   Visibility: 7mi
Dew Point: 28°   Wind: 3mph
Humidity: 82%   Direction: 250°WSW
Pressure: 30.16"   Gusts: NA
Location:  41.1181°N, 77.0218°W
Report Text: KIPT 230354Z AUTO 25003KT 7SM FEW075 OVC095 01/M02 A3016 RMK AO2 SLP218 T00061022
Loading
Personal Weather Stations






























Interactive Weather Map New forecast layout! Learn more

10-Day Weather Forecast

Advertisements
Track Severe Weather on mobile